sensor_id;sensor_type;location;lat;lon;timestamp;pressure;altitude;pressure_sealevel;temperature;humidity
50087;BME280;35967;50.718;7.050;2023-02-11T00:05:05;102706.84;;;6.51;76.96
50087;BME280;35967;50.718;7.050;2023-02-11T00:15:11;102705.25;;;6.55;77.13
50087;BME280;35967;50.718;7.050;2023-02-11T00:25:15;102690.69;;;6.52;77.41
50087;BME280;35967;50.718;7.050;2023-02-11T00:35:19;102684.53;;;6.47;78.50
50087;BME280;35967;50.718;7.050;2023-02-11T00:45:22;102663.28;;;6.50;77.62
50087;BME280;35967;50.718;7.050;2023-02-11T00:55:26;102677.56;;;6.41;78.02
50087;BME280;35967;50.718;7.050;2023-02-11T01:05:29;102660.44;;;6.39;77.96
50087;BME280;35967;50.718;7.050;2023-02-11T01:15:34;102649.00;;;6.26;77.70
50087;BME280;35967;50.718;7.050;2023-02-11T01:25:37;102664.81;;;6.12;78.50
50087;BME280;35967;50.718;7.050;2023-02-11T01:35:43;102662.75;;;5.99;77.77
50087;BME280;35967;50.718;7.050;2023-02-11T01:45:57;102675.75;;;5.79;78.44
50087;BME280;35967;50.718;7.050;2023-02-11T01:56:04;102667.88;;;5.72;78.67
50087;BME280;35967;50.718;7.050;2023-02-11T02:06:30;102684.34;;;5.54;78.72
50087;BME280;35967;50.718;7.050;2023-02-11T02:16:36;102690.13;;;5.48;78.75
50087;BME280;35967;50.718;7.050;2023-02-11T02:27:02;102679.56;;;5.37;78.43
50087;BME280;35967;50.718;7.050;2023-02-11T02:37:14;102669.88;;;5.55;78.60
50087;BME280;35967;50.718;7.050;2023-02-11T02:47:18;102659.34;;;5.44;79.20
50087;BME280;35967;50.718;7.050;2023-02-11T02:57:29;102651.78;;;5.47;79.51
50087;BME280;35967;50.718;7.050;2023-02-11T03:07:39;102660.59;;;5.29;79.29
50087;BME280;35967;50.718;7.050;2023-02-11T03:17:47;102618.78;;;5.26;79.79
50087;BME280;35967;50.718;7.050;2023-02-11T03:27:56;102620.69;;;5.05;79.71
50087;BME280;35967;50.718;7.050;2023-02-11T03:38:06;102640.88;;;4.73;80.76
50087;BME280;35967;50.718;7.050;2023-02-11T03:48:13;102639.38;;;4.54;81.21
50087;BME280;35967;50.718;7.050;2023-02-11T03:58:19;102626.00;;;4.60;80.70
50087;BME280;35967;50.718;7.050;2023-02-11T04:08:22;102619.16;;;4.10;84.04
50087;BME280;35967;50.718;7.050;2023-02-11T04:18:27;102619.03;;;4.56;82.82
50087;BME280;35967;50.718;7.050;2023-02-11T04:28:30;102622.19;;;4.49;81.65
50087;BME280;35967;50.718;7.050;2023-02-11T04:38:34;102610.81;;;4.39;82.61
50087;BME280;35967;50.718;7.050;2023-02-11T04:48:37;102614.94;;;4.35;83.11
50087;BME280;35967;50.718;7.050;2023-02-11T04:58:41;102592.47;;;4.25;83.31
50087;BME280;35967;50.718;7.050;2023-02-11T05:08:45;102596.19;;;4.35;83.83
50087;BME280;35967;50.718;7.050;2023-02-11T05:18:49;102579.34;;;4.64;83.39
50087;BME280;35967;50.718;7.050;2023-02-11T05:28:53;102589.44;;;4.87;82.97
50087;BME280;35967;50.718;7.050;2023-02-11T05:38:57;102596.25;;;4.86;83.73
50087;BME280;35967;50.718;7.050;2023-02-11T05:49:01;102583.41;;;5.11;83.52
50087;BME280;35967;50.718;7.050;2023-02-11T05:59:05;102580.28;;;5.19;83.35
50087;BME280;35967;50.718;7.050;2023-02-11T06:09:11;102567.75;;;5.27;83.83
50087;BME280;35967;50.718;7.050;2023-02-11T06:19:16;102560.38;;;5.36;83.47
50087;BME280;35967;50.718;7.050;2023-02-11T06:29:19;102571.56;;;5.42;83.66
50087;BME280;35967;50.718;7.050;2023-02-11T06:39:24;102555.53;;;5.46;84.21
50087;BME280;35967;50.718;7.050;2023-02-11T06:49:27;102582.19;;;5.54;83.46
50087;BME280;35967;50.718;7.050;2023-02-11T06:59:31;102601.72;;;5.53;84.73
50087;BME280;35967;50.718;7.050;2023-02-11T07:09:34;102598.44;;;5.56;85.17
50087;BME280;35967;50.718;7.050;2023-02-11T07:19:39;102599.69;;;5.71;84.64
50087;BME280;35967;50.718;7.050;2023-02-11T07:29:44;102614.22;;;5.72;85.18
50087;BME280;35967;50.718;7.050;2023-02-11T07:39:48;102615.94;;;5.73;85.10
50087;BME280;35967;50.718;7.050;2023-02-11T07:49:52;102622.97;;;5.80;86.22
50087;BME280;35967;50.718;7.050;2023-02-11T07:59:58;102632.44;;;5.84;86.67
50087;BME280;35967;50.718;7.050;2023-02-11T08:10:11;102649.75;;;5.93;86.67
50087;BME280;35967;50.718;7.050;2023-02-11T08:20:15;102645.59;;;5.96;86.48
50087;BME280;35967;50.718;7.050;2023-02-11T08:30:19;102656.81;;;6.00;86.98
50087;BME280;35967;50.718;7.050;2023-02-11T08:40:24;102659.59;;;6.09;86.71
50087;BME280;35967;50.718;7.050;2023-02-11T08:50:27;102653.69;;;6.10;87.49
50087;BME280;35967;50.718;7.050;2023-02-11T09:00:32;102658.72;;;6.07;88.22
50087;BME280;35967;50.718;7.050;2023-02-11T09:10:36;102664.03;;;6.15;89.06
50087;BME280;35967;50.718;7.050;2023-02-11T09:20:40;102670.75;;;6.11;90.13
50087;BME280;35967;50.718;7.050;2023-02-11T09:30:43;102704.25;;;6.19;89.82
50087;BME280;35967;50.718;7.050;2023-02-11T09:40:48;102706.84;;;6.51;90.60
50087;BME280;35967;50.718;7.050;2023-02-11T09:50:55;102704.00;;;6.40;90.50
50087;BME280;35967;50.718;7.050;2023-02-11T10:01:06;102713.50;;;6.46;90.44
50087;BME280;35967;50.718;7.050;2023-02-11T10:11:17;102709.41;;;6.51;90.24
50087;BME280;35967;50.718;7.050;2023-02-11T10:21:39;102721.38;;;6.52;90.71
50087;BME280;35967;50.718;7.050;2023-02-11T10:31:49;102727.22;;;6.78;91.45
50087;BME280;35967;50.718;7.050;2023-02-11T10:41:56;102719.41;;;6.74;91.02
50087;BME280;35967;50.718;7.050;2023-02-11T10:52:16;102729.97;;;6.86;91.77
50087;BME280;35967;50.718;7.050;2023-02-11T11:02:25;102730.06;;;6.89;92.24
50087;BME280;35967;50.718;7.050;2023-02-11T11:12:35;102719.91;;;6.92;92.23
50087;BME280;35967;50.718;7.050;2023-02-11T11:22:44;102725.03;;;6.92;92.96
50087;BME280;35967;50.718;7.050;2023-02-11T11:32:48;102716.50;;;6.93;93.65
50087;BME280;35967;50.718;7.050;2023-02-11T11:43:16;102714.03;;;6.97;93.56
50087;BME280;35967;50.718;7.050;2023-02-11T11:53:29;102698.78;;;7.01;94.30
50087;BME280;35967;50.718;7.050;2023-02-11T12:14:30;102693.50;;;7.30;96.07
50087;BME280;35967;50.718;7.050;2023-02-11T12:24:58;102700.59;;;7.40;96.32
50087;BME280;35967;50.718;7.050;2023-02-11T12:35:26;102705.13;;;7.51;96.29
50087;BME280;35967;50.718;7.050;2023-02-11T12:45:44;102709.09;;;7.74;96.10
50087;BME280;35967;50.718;7.050;2023-02-11T12:55:54;102720.72;;;7.60;96.64
50087;BME280;35967;50.718;7.050;2023-02-11T13:06:03;102696.09;;;7.67;96.41
50087;BME280;35967;50.718;7.050;2023-02-11T13:16:18;102703.47;;;7.53;98.09
50087;BME280;35967;50.718;7.050;2023-02-11T13:26:27;102695.13;;;7.62;98.08
50087;BME280;35967;50.718;7.050;2023-02-11T13:36:34;102693.34;;;7.59;98.13
50087;BME280;35967;50.718;7.050;2023-02-11T13:46:49;102688.38;;;7.67;98.40
50087;BME280;35967;50.718;7.050;2023-02-11T13:57:32;102694.44;;;7.69;99.11
50087;BME280;35967;50.718;7.050;2023-02-11T14:07:36;102684.97;;;7.66;99.34
50087;BME280;35967;50.718;7.050;2023-02-11T14:18:01;102673.06;;;7.68;99.52
50087;BME280;35967;50.718;7.050;2023-02-11T14:28:11;102689.19;;;7.64;100.00
50087;BME280;35967;50.718;7.050;2023-02-11T14:38:24;102695.34;;;7.71;99.82
50087;BME280;35967;50.718;7.050;2023-02-11T14:48:30;102696.41;;;7.81;99.44
50087;BME280;35967;50.718;7.050;2023-02-11T14:58:35;102694.63;;;7.78;99.01
50087;BME280;35967;50.718;7.050;2023-02-11T15:08:43;102689.78;;;7.90;98.93
50087;BME280;35967;50.718;7.050;2023-02-11T15:18:50;102684.44;;;7.81;98.95
50087;BME280;35967;50.718;7.050;2023-02-11T15:28:53;102707.88;;;7.97;97.92
50087;BME280;35967;50.718;7.050;2023-02-11T15:39:18;102702.78;;;7.98;97.72
50087;BME280;35967;50.718;7.050;2023-02-11T15:49:22;102716.50;;;8.00;97.80
50087;BME280;35967;50.718;7.050;2023-02-11T15:59:28;102710.50;;;8.01;97.44
50087;BME280;35967;50.718;7.050;2023-02-11T16:09:34;102713.06;;;8.00;97.61
50087;BME280;35967;50.718;7.050;2023-02-11T16:19:44;102724.22;;;8.02;97.39
50087;BME280;35967;50.718;7.050;2023-02-11T16:29:48;102730.97;;;7.97;97.29
50087;BME280;35967;50.718;7.050;2023-02-11T16:39:53;102755.16;;;8.10;99.44
50087;BME280;35967;50.718;7.050;2023-02-11T16:49:57;102765.19;;;7.99;97.74
50087;BME280;35967;50.718;7.050;2023-02-11T17:00:02;102774.50;;;7.95;97.37
50087;BME280;35967;50.718;7.050;2023-02-11T17:10:12;102782.88;;;7.88;97.75
50087;BME280;35967;50.718;7.050;2023-02-11T17:20:18;102791.63;;;7.96;97.53
50087;BME280;35967;50.718;7.050;2023-02-11T17:30:21;102811.91;;;7.87;97.66
50087;BME280;35967;50.718;7.050;2023-02-11T17:40:27;102827.38;;;7.90;97.43
50087;BME280;35967;50.718;7.050;2023-02-11T17:50:29;102825.69;;;7.90;97.54
50087;BME280;35967;50.718;7.050;2023-02-11T18:00:34;102836.00;;;7.92;97.68
50087;BME280;35967;50.718;7.050;2023-02-11T18:10:39;102839.44;;;7.94;97.53
50087;BME280;35967;50.718;7.050;2023-02-11T18:20:44;102841.94;;;7.91;97.60
50087;BME280;35967;50.718;7.050;2023-02-11T18:30:57;102845.44;;;7.93;96.84
50087;BME280;35967;50.718;7.050;2023-02-11T18:41:02;102846.19;;;7.90;97.41
50087;BME280;35967;50.718;7.050;2023-02-11T18:51:11;102839.28;;;7.86;97.76
50087;BME280;35967;50.718;7.050;2023-02-11T19:01:18;102845.25;;;7.87;97.30
50087;BME280;35967;50.718;7.050;2023-02-11T19:11:24;102843.50;;;7.84;97.23
50087;BME280;35967;50.718;7.050;2023-02-11T19:21:49;102843.34;;;7.78;97.30
50087;BME280;35967;50.718;7.050;2023-02-11T19:31:53;102848.44;;;7.77;97.71
50087;BME280;35967;50.718;7.050;2023-02-11T19:41:58;102857.41;;;7.61;96.67
50087;BME280;35967;50.718;7.050;2023-02-11T19:52:01;102865.19;;;7.64;97.08
50087;BME280;35967;50.718;7.050;2023-02-11T20:02:05;102877.00;;;7.58;96.81
50087;BME280;35967;50.718;7.050;2023-02-11T20:12:08;102873.59;;;7.58;96.60
50087;BME280;35967;50.718;7.050;2023-02-11T20:22:13;102880.34;;;7.54;96.92
50087;BME280;35967;50.718;7.050;2023-02-11T20:32:18;102880.59;;;7.64;97.39
50087;BME280;35967;50.718;7.050;2023-02-11T20:42:23;102890.66;;;7.57;96.82
50087;BME280;35967;50.718;7.050;2023-02-11T20:52:27;102907.59;;;7.52;97.50
50087;BME280;35967;50.718;7.050;2023-02-11T21:02:31;102905.88;;;7.51;97.29
50087;BME280;35967;50.718;7.050;2023-02-11T21:12:35;102917.31;;;7.64;96.97
50087;BME280;35967;50.718;7.050;2023-02-11T21:22:40;102910.88;;;7.47;97.53
50087;BME280;35967;50.718;7.050;2023-02-11T21:32:43;102917.22;;;7.61;96.60
50087;BME280;35967;50.718;7.050;2023-02-11T21:42:48;102925.72;;;7.58;96.81
50087;BME280;35967;50.718;7.050;2023-02-11T21:52:50;102913.72;;;7.57;96.86
50087;BME280;35967;50.718;7.050;2023-02-11T22:02:55;102918.03;;;7.58;96.72
50087;BME280;35967;50.718;7.050;2023-02-11T22:12:59;102916.13;;;7.51;96.74
50087;BME280;35967;50.718;7.050;2023-02-11T22:23:04;102923.53;;;7.40;97.23
50087;BME280;35967;50.718;7.050;2023-02-11T22:33:07;102939.78;;;7.41;97.73
50087;BME280;35967;50.718;7.050;2023-02-11T22:43:11;102944.41;;;7.54;97.13
50087;BME280;35967;50.718;7.050;2023-02-11T22:53:15;102942.66;;;7.53;97.30
50087;BME280;35967;50.718;7.050;2023-02-11T23:03:19;102952.78;;;7.49;97.10
50087;BME280;35967;50.718;7.050;2023-02-11T23:13:23;102960.44;;;7.47;97.23
50087;BME280;35967;50.718;7.050;2023-02-11T23:23:27;102966.28;;;7.43;97.26
50087;BME280;35967;50.718;7.050;2023-02-11T23:33:30;102978.25;;;7.42;97.18
50087;BME280;35967;50.718;7.050;2023-02-11T23:43:35;102968.25;;;7.52;97.24
50087;BME280;35967;50.718;7.050;2023-02-11T23:53:38;102967.38;;;7.51;97.01
